Greenback, Tennessee
Current Conditions -  °F | °C
As of 1:53 AM on Thursday 23 Oct 2014 (Local Time) from KTYS Reporting Station
Clear Clear  
Wind Chill: 40°   Ceiling: Unl
Heat Index: 44°   Visibility: 10mi
Dew Point: 39°   Wind: 8mph
Humidity: 82%   Direction: 20°NNE
Pressure: 30.19"   Gusts: NA
Location:  35.66°N, 84.17°W
Report Text: KTYS 230553Z 02007KT 10SM CLR 07/04 A3019 RMK AO2 SLP222 T00670039 10100 20050 56010
Loading
Personal Weather Stations






























Interactive Weather Map
Tropical Storm Tracking
New forecast layout! Learn more

10-Day Weather Forecast

Advertisements
Track Severe Weather on mobile